Fripp Island, SC

12:17 PM EDT on June 02, 2015 (GMT -0400)
Tarpon Blvd Ocean Front | | Change Station
CLOSE
Current Station
Personal Weather Station
Location: Fripp Island, SC
Elevation: 35 ft
Nearby Weather Stations

Elev 35 ft 32.31 °N, 80.49 °W | Updated 1 second ago

Clear
Clear
81.6 °F
Feels Like 86 °F
N
7.0
Wind Variable Wind from South
Gusts 11.0 mph

Today
High -- | Low -- °F
--% Chance of Precip.
Yesterday
High -- | Low -- °F
Precip. -- in
6:15 AM 8:24 PM
Full, 100% visible
Pressure 30.02 in
Visibility 7.0 miles
Clouds Scattered Clouds 2900 ft
Scattered Clouds 5500 ft
Heat Index 86 °F
Dew Point 72 °F
Humidity 72%
Rainfall 0.00 in
Snow Depth Not available.
UV 11 out of 12
Pollen 3.10 out of 12
Air Quality Not available.
Flu Activity Local Activity
METAR KARW 021615Z AUTO 23004KT 7SM SCT029 SCT055 27/21 A3002 RMK AO2

More Conditions Fewer Conditions

Pressure 30.02 in
Visibility 7.0 miles
Clouds Scattered Clouds 2900 ft
Scattered Clouds 5500 ft
Heat Index 86 °F
Dew Point 72 °F
Humidity 72%
Rainfall 0.00 in
Snow Depth Not available.
UV 11 out of 12
Pollen 3.10 out of 12
Air Quality Not available.
Flu Activity Local Activity
METAR KARW 021615Z AUTO 23004KT 7SM SCT029 SCT055 27/21 A3002 RMK AO2

More Conditions Fewer Conditions

10-Day Weather Forecast

Almanac

Astronomy

Jun. 02, 2015 Rise Set
Actual Time
Civil Twilight
Nautical Twilight
Astronomical Twilight
Moon
Length of Visible Light
Length of Day
Tomorrow will be .
, % of the Moon is Illuminated

Today's Extremes

State Highs State Lows

Community

WunderPhotos

Upload Photos

1,825,973 photos uploaded!

WunderBlogs® & News

Nearby

Air Quality

  Air Quality AQ Index Pollutant
Not available.

Snow Depth

Station Depth Elevation

Earthquake Activity

City Distance Mag. Time & Date
Minimum magnitude displayed is 2.5.

Coastal Water Temperatures

Place Temperature

Stations

Nearby Weather Stations

Station Location Temp. Windchill Dew Point Humidity Wind Precip. Elev Updated Type